Time;durP1;ratioP1;P1;durP2;ratioP2;P2;SDS_P1;SDS_P2;PMS_P1;PMS_P2;Temp;Humidity;BMP_temperature;BMP_pressure;BME280_temperature;BME280_humidity;BME280_pressure;Samples;Min_cycle;Max_cycle;Signal;HPM_P1;HPM_P2
2021/03/29 00:00:41;;;;;;;2.00;0.90;;;11.90;54.30;;;;;;2613283;52;20985;-64
2021/03/29 00:03:07;;;;;;;4.57;0.90;;;11.80;54.20;;;;;;2368193;53;20929;-64
2021/03/29 00:05:34;;;;;;;1.85;0.80;;;11.80;54.30;;;;;;2618959;52;21754;-65
2021/03/29 00:08:09;;;;;;;2.22;1.00;;;11.70;54.30;;;;;;2367150;53;20903;-64
2021/03/29 00:10:37;;;;;;;3.55;1.40;;;11.70;54.00;;;;;;2367524;53;21896;-64
2021/03/29 00:13:03;;;;;;;3.00;1.27;;;11.50;54.10;;;;;;2367026;53;20972;-64
2021/03/29 00:15:33;;;;;;;3.00;1.30;;;11.60;54.20;;;;;;2365379;53;21005;-64
2021/03/29 00:17:59;;;;;;;3.42;1.55;;;11.60;54.20;;;;;;2617250;52;20984;-64
2021/03/29 00:20:30;;;;;;;4.15;1.45;;;11.50;54.20;;;;;;2597936;52;20889;-64
2021/03/29 00:22:59;;;;;;;4.20;1.05;;;11.50;54.10;;;;;;2611150;52;21030;-65
2021/03/29 00:25:26;;;;;;;2.58;0.88;;;11.40;54.20;;;;;;2348565;53;21024;-65
2021/03/29 00:27:52;;;;;;;5.65;1.30;;;11.40;54.30;;;;;;2609219;52;20925;-64
2021/03/29 00:30:24;;;;;;;2.78;0.90;;;11.30;54.20;;;;;;2366422;53;20892;-64
2021/03/29 00:32:51;;;;;;;1.58;0.60;;;11.30;54.20;;;;;;2367486;53;20918;-64
2021/03/29 00:35:18;;;;;;;2.17;0.85;;;11.30;54.30;;;;;;2352280;53;20933;-64
2021/03/29 00:37:46;;;;;;;2.92;0.70;;;11.20;54.30;;;;;;2585123;53;21013;-65
2021/03/29 00:40:13;;;;;;;2.53;0.90;;;11.10;54.30;;;;;;2589795;53;20912;-64
2021/03/29 00:42:40;;;;;;;2.05;0.80;;;11.10;54.40;;;;;;2344232;54;20972;-64
2021/03/29 00:45:13;;;;;;;2.25;0.88;;;11.00;54.30;;;;;;2344749;53;21051;-64
2021/03/29 00:47:39;;;;;;;1.83;0.70;;;11.10;54.50;;;;;;2609476;52;20916;-64
2021/03/29 00:50:51;;;;;;;2.78;0.77;;;10.90;54.40;;;;;;2591239;53;20944;-64
2021/03/29 00:53:17;;;;;;;2.62;0.60;;;10.90;54.30;;;;;;2614204;52;20909;-64
2021/03/29 00:55:48;;;;;;;1.55;0.60;;;10.80;54.40;;;;;;2363184;53;20963;-64
2021/03/29 00:58:15;;;;;;;2.92;0.88;;;10.70;54.40;;;;;;2608000;52;20952;-64
2021/03/29 01:00:51;;;;;;;1.75;0.70;;;10.70;54.50;;;;;;2367594;53;20945;-64
2021/03/29 01:03:22;;;;;;;2.33;0.90;;;10.70;54.60;;;;;;2594643;52;22073;-64
2021/03/29 01:06:14;;;;;;;1.83;0.77;;;10.60;54.50;;;;;;2370748;53;21469;-64
2021/03/29 01:08:41;;;;;;;1.62;0.98;;;10.50;54.10;;;;;;2367441;53;20973;-64
2021/03/29 01:11:09;;;;;;;1.52;0.60;;;10.50;54.60;;;;;;2367068;53;21115;-64
2021/03/29 01:13:36;;;;;;;2.58;1.10;;;10.40;54.60;;;;;;2353586;53;21760;-64
2021/03/29 01:16:45;;;;;;;4.22;1.00;;;10.30;54.60;;;;;;2597429;52;21077;-64
2021/03/29 01:19:25;;;;;;;1.77;0.85;;;10.30;54.40;;;;;;2604043;52;21067;-64
2021/03/29 01:22:09;;;;;;;1.70;0.80;;;10.20;54.60;;;;;;2366532;53;20905;-64
2021/03/29 01:24:58;;;;;;;1.77;0.73;;;10.10;54.40;;;;;;2610432;52;21034;-64
2021/03/29 01:27:35;;;;;;;2.15;0.80;;;10.10;54.50;;;;;;2355513;53;20913;-64
2021/03/29 01:30:06;;;;;;;2.40;0.98;;;10.00;54.70;;;;;;2617923;52;21816;-64
2021/03/29 01:32:32;;;;;;;1.40;0.73;;;10.00;54.90;;;;;;2367374;53;20973;-64
2021/03/29 01:35:00;;;;;;;2.33;0.80;;;9.90;55.70;;;;;;2363978;53;20958;-63
2021/03/29 01:37:26;;;;;;;2.83;1.10;;;9.90;55.80;;;;;;2354417;53;20997;-64
2021/03/29 01:39:55;;;;;;;2.60;0.88;;;9.80;55.80;;;;;;2359397;53;20994;-65
2021/03/29 01:42:22;;;;;;;1.70;0.65;;;9.70;55.80;;;;;;2362790;53;20890;-64
2021/03/29 01:44:48;;;;;;;1.70;0.80;;;9.70;55.80;;;;;;2584490;53;21530;-65
2021/03/29 01:47:14;;;;;;;2.37;0.98;;;9.60;55.80;;;;;;2357026;53;20985;-64
2021/03/29 01:49:41;;;;;;;3.15;1.02;;;9.60;55.90;;;;;;2369210;53;20949;-64
2021/03/29 01:52:07;;;;;;;2.60;1.05;;;9.50;55.90;;;;;;2347662;53;20944;-63
2021/03/29 01:54:33;;;;;;;2.90;1.00;;;9.50;56.00;;;;;;2354827;53;21001;-65
2021/03/29 01:57:06;;;;;;;2.62;1.10;;;9.40;56.00;;;;;;2356376;53;21021;-64
2021/03/29 01:59:32;;;;;;;;;;;9.40;56.10;;;;;;2619136;52;20882;-64
2021/03/29 02:01:59;;;;;;;1.73;0.68;;;9.30;55.40;;;;;;2368096;53;20074;-64
2021/03/29 02:04:27;;;;;;;2.47;0.90;;;9.30;56.10;;;;;;2364469;53;21013;-64
2021/03/29 02:06:53;;;;;;;1.92;0.80;;;9.30;56.20;;;;;;2333497;54;21034;-64
2021/03/29 02:09:20;;;;;;;4.35;1.00;;;9.20;56.30;;;;;;2351539;53;20901;-64
2021/03/29 02:11:46;;;;;;;2.90;1.12;;;9.10;56.30;;;;;;2366472;53;20981;-64
2021/03/29 02:14:12;;;;;;;2.62;1.00;;;9.10;56.40;;;;;;2362605;53;21452;-64
2021/03/29 02:16:38;;;;;;;1.40;0.62;;;9.10;56.40;;;;;;2359839;53;20965;-64
2021/03/29 02:19:05;;;;;;;1.90;0.80;;;9.00;56.40;;;;;;2367224;53;20961;-64
2021/03/29 02:21:38;;;;;;;1.50;0.65;;;8.90;56.40;;;;;;2367819;53;21687;-64
2021/03/29 02:24:06;;;;;;;2.50;1.00;;;8.90;56.50;;;;;;2367253;53;20981;-64
2021/03/29 02:26:35;;;;;;;2.10;0.80;;;8.90;56.60;;;;;;2367826;53;21751;-64
2021/03/29 02:29:02;;;;;;;3.03;1.15;;;8.80;56.60;;;;;;2614980;52;20924;-64
2021/03/29 02:31:28;;;;;;;4.18;1.40;;;8.80;56.70;;;;;;2367106;53;21456;-64
2021/03/29 02:33:56;;;;;;;3.47;0.90;;;8.70;56.60;;;;;;2351856;54;20934;-64
2021/03/29 02:36:22;;;;;;;3.17;0.90;;;8.70;56.80;;;;;;2367759;53;20933;-64
2021/03/29 02:38:52;;;;;;;2.17;0.90;;;8.70;56.80;;;;;;2365946;53;20973;-64
2021/03/29 02:41:23;;;;;;;2.72;0.90;;;8.60;56.80;;;;;;2367849;53;21805;-64
2021/03/29 02:43:49;;;;;;;1.92;0.82;;;8.60;56.80;;;;;;2367430;53;20950;-64
2021/03/29 02:46:16;;;;;;;2.83;0.95;;;8.60;56.90;;;;;;2619329;52;20909;-64
2021/03/29 02:48:44;;;;;;;3.22;1.08;;;8.50;56.90;;;;;;2592827;52;21639;-64
2021/03/29 02:51:12;;;;;;;3.00;1.00;;;8.50;57.10;;;;;;2366639;53;20986;-64
2021/03/29 02:53:44;;;;;;;2.85;1.00;;;8.50;57.10;;;;;;2620024;52;21320;-64
2021/03/29 02:56:15;;;;;;;3.25;1.00;;;8.50;57.10;;;;;;2367705;53;20925;-64
2021/03/29 02:58:43;;;;;;;2.07;0.90;;;8.40;57.00;;;;;;2367836;53;20942;-64
2021/03/29 03:01:10;;;;;;;2.03;0.82;;;8.30;57.00;;;;;;2359374;53;21010;-64
2021/03/29 03:03:50;;;;;;;2.28;0.75;;;8.30;57.10;;;;;;2601437;52;20969;-64
2021/03/29 03:06:18;;;;;;;2.92;1.00;;;8.30;57.10;;;;;;2368022;53;20972;-63
2021/03/29 03:08:44;;;;;;;3.05;0.85;;;8.20;57.20;;;;;;2367767;53;20941;-64
2021/03/29 03:11:12;;;;;;;2.87;1.10;;;8.20;57.30;;;;;;2370245;53;20913;-64
2021/03/29 03:13:38;;;;;;;3.03;1.08;;;8.20;57.40;;;;;;2348912;53;20948;-64
2021/03/29 03:16:05;;;;;;;3.33;1.00;;;8.20;57.40;;;;;;2367526;53;20896;-64
2021/03/29 03:18:32;;;;;;;2.95;1.33;;;8.10;57.40;;;;;;2619465;52;20870;-63
2021/03/29 03:21:01;;;;;;;2.30;0.80;;;8.10;57.50;;;;;;2577202;53;21022;-64
2021/03/29 03:23:32;;;;;;;2.62;0.80;;;8.10;57.60;;;;;;2328197;54;20928;-64
2021/03/29 03:25:58;;;;;;;2.55;0.82;;;8.10;57.60;;;;;;2366364;53;20952;-64
2021/03/29 03:28:27;;;;;;;2.80;0.88;;;8.00;57.60;;;;;;2361558;53;21042;-64
2021/03/29 03:30:55;;;;;;;2.95;1.12;;;8.00;57.70;;;;;;2355740;53;21698;-64
2021/03/29 03:33:26;;;;;;;3.03;1.40;;;8.00;57.70;;;;;;2362946;53;20921;-63
2021/03/29 03:35:52;;;;;;;3.40;1.70;;;8.00;57.80;;;;;;2590194;53;20964;-64
2021/03/29 03:38:42;;;;;;;3.22;1.55;;;7.90;57.70;;;;;;2361404;53;21038;-64
2021/03/29 03:41:15;;;;;;;2.80;1.10;;;7.90;57.50;;;;;;2362004;53;20909;-63
2021/03/29 03:44:05;;;;;;;3.85;1.48;;;7.90;57.70;;;;;;2367039;53;20918;-63
2021/03/29 03:46:38;;;;;;;4.60;1.60;;;7.90;57.80;;;;;;2609554;52;21058;-64
2021/03/29 03:49:13;;;;;;;2.65;1.25;;;7.90;57.80;;;;;;2340601;54;20985;-64
2021/03/29 03:51:39;;;;;;;4.12;1.20;;;7.80;57.80;;;;;;2356978;53;20982;-64
2021/03/29 03:54:10;;;;;;;2.30;1.00;;;7.80;58.40;;;;;;2363091;53;21029;-64
2021/03/29 03:56:36;;;;;;;3.35;1.15;;;7.70;57.80;;;;;;2367402;53;20932;-64
2021/03/29 03:59:04;;;;;;;2.08;0.90;;;7.70;57.80;;;;;;2357679;53;21016;-64
2021/03/29 04:01:52;;;;;;;4.50;1.15;;;7.70;57.80;;;;;;2361216;53;20954;-63
2021/03/29 04:04:21;;;;;;;2.90;1.20;;;7.60;57.70;;;;;;2361052;53;20981;-64
2021/03/29 04:06:47;;;;;;;3.17;0.90;;;7.60;57.70;;;;;;2619200;52;21434;-64
2021/03/29 04:09:14;;;;;;;2.30;0.80;;;7.50;57.80;;;;;;2367384;53;21434;-64
2021/03/29 04:11:49;;;;;;;4.30;1.00;;;7.50;57.80;;;;;;2367481;53;20922;-64
2021/03/29 04:14:18;;;;;;;1.98;1.00;;;7.50;57.90;;;;;;2367653;53;20909;-63
2021/03/29 04:16:44;;;;;;;2.33;0.90;;;7.40;57.80;;;;;;2367239;53;20921;-64
2021/03/29 04:19:11;;;;;;;3.45;1.15;;;7.40;57.90;;;;;;2367527;53;21096;-64
2021/03/29 04:21:37;;;;;;;2.45;1.08;;;7.40;57.90;;;;;;2351572;53;21419;-64
2021/03/29 04:24:05;;;;;;;2.50;1.10;;;7.30;57.90;;;;;;2618846;52;21493;-64
2021/03/29 04:26:31;;;;;;;2.70;1.10;;;7.30;58.20;;;;;;2597098;52;20938;-64
2021/03/29 04:29:01;;;;;;;3.65;1.40;;;7.30;58.00;;;;;;2614468;52;20906;-63
2021/03/29 04:31:27;;;;;;;2.47;0.95;;;7.20;58.00;;;;;;2351122;53;20936;-64
2021/03/29 04:33:53;;;;;;;3.20;1.10;;;7.20;58.10;;;;;;2616549;52;20933;-64
2021/03/29 04:36:19;;;;;;;3.45;1.40;;;7.20;58.10;;;;;;2358728;53;21004;-64
2021/03/29 04:38:47;;;;;;;4.28;1.58;;;7.20;58.20;;;;;;2595917;52;21465;-64
2021/03/29 04:41:15;;;;;;;2.65;1.23;;;7.10;58.10;;;;;;2598932;52;21061;-64
2021/03/29 04:43:41;;;;;;;3.70;1.20;;;7.10;58.20;;;;;;2619535;52;20925;-63
2021/03/29 04:46:07;;;;;;;2.60;1.20;;;7.00;58.20;;;;;;2347921;53;21453;-64
2021/03/29 04:48:34;;;;;;;4.05;2.40;;;7.10;58.30;;;;;;2612885;52;20889;-63
2021/03/29 04:51:01;;;;;;;3.47;1.98;;;7.00;58.40;;;;;;2366820;53;21354;-64
2021/03/29 04:53:28;;;;;;;3.20;1.45;;;7.00;58.50;;;;;;2607115;52;21009;-64
2021/03/29 04:55:54;;;;;;;4.85;1.77;;;7.00;58.60;;;;;;2355987;53;20894;-63
2021/03/29 04:58:20;;;;;;;3.30;1.40;;;7.00;58.60;;;;;;2364838;53;20993;-64
2021/03/29 05:00:47;;;;;;;3.87;1.55;;;6.90;58.60;;;;;;2603759;52;21553;-63
2021/03/29 05:03:13;;;;;;;4.47;1.85;;;6.90;58.70;;;;;;2366793;53;20965;-64
2021/03/29 05:05:39;;;;;;;4.28;1.80;;;6.90;58.70;;;;;;2366957;53;20878;-65
2021/03/29 05:08:06;;;;;;;3.35;1.40;;;6.90;58.70;;;;;;2618368;52;20925;-64
2021/03/29 05:10:35;;;;;;;4.45;1.58;;;6.90;58.80;;;;;;2366361;53;20886;-63
2021/03/29 05:13:01;;;;;;;4.47;1.55;;;6.90;58.80;;;;;;2608776;52;20986;-63
2021/03/29 05:15:28;;;;;;;4.85;1.92;;;6.90;58.80;;;;;;2362039;53;21006;-63
2021/03/29 05:17:54;;;;;;;5.37;2.15;;;7.00;58.90;;;;;;2602185;52;21590;-63
2021/03/29 05:20:21;;;;;;;5.95;1.80;;;6.90;58.90;;;;;;2356357;53;21664;-64
2021/03/29 05:22:47;;;;;;;6.35;1.92;;;6.90;59.00;;;;;;2363545;53;20933;-64
2021/03/29 05:25:14;;;;;;;4.10;2.00;;;6.90;59.00;;;;;;2366877;53;21446;-63
2021/03/29 05:27:41;;;;;;;4.70;1.70;;;6.90;59.00;;;;;;2367166;53;20975;-63
2021/03/29 05:30:08;;;;;;;4.62;1.60;;;6.90;59.60;;;;;;2590268;53;21040;-63
2021/03/29 05:32:35;;;;;;;4.25;1.50;;;6.80;59.00;;;;;;2344158;54;20936;-64
2021/03/29 05:35:01;;;;;;;4.85;1.58;;;6.80;59.10;;;;;;2600709;52;20968;-63
2021/03/29 05:37:28;;;;;;;3.25;1.37;;;6.90;59.20;;;;;;2593445;52;21023;-64
2021/03/29 05:39:55;;;;;;;3.50;1.35;;;6.80;59.20;;;;;;2333578;54;20982;-64
2021/03/29 05:42:23;;;;;;;4.65;1.40;;;6.90;59.30;;;;;;2579456;53;21663;-64
2021/03/29 05:44:52;;;;;;;2.85;1.17;;;6.90;59.40;;;;;;2343690;54;21021;-64
2021/03/29 05:47:19;;;;;;;4.45;1.58;;;6.90;59.40;;;;;;2556856;53;20959;-63
2021/03/29 05:49:47;;;;;;;3.33;1.60;;;6.90;59.50;;;;;;2327514;53;20976;-64
2021/03/29 05:52:13;;;;;;;3.40;1.45;;;6.90;59.50;;;;;;2589056;52;20937;-63
2021/03/29 05:55:02;;;;;;;3.33;1.15;;;6.90;59.60;;;;;;2362937;53;20961;-63
2021/03/29 05:57:39;;;;;;;5.12;1.60;;;6.90;59.50;;;;;;2616806;52;21398;-64
2021/03/29 06:00:37;;;;;;;3.92;1.30;;;6.90;59.60;;;;;;2366225;53;21076;-64
2021/03/29 06:03:52;;;;;;;3.25;1.10;;;6.90;59.60;;;;;;2367308;53;21581;-64
2021/03/29 06:06:20;;;;;;;3.25;1.30;;;7.00;59.70;;;;;;2359476;53;20947;-64
2021/03/29 06:08:47;;;;;;;2.78;1.10;;;7.00;59.80;;;;;;2601596;52;20949;-64
2021/03/29 06:11:33;;;;;;;4.37;1.27;;;7.00;59.90;;;;;;2340581;54;20914;-63
2021/03/29 06:14:20;;;;;;;4.03;1.23;;;7.00;59.90;;;;;;2618153;52;21041;-64
2021/03/29 06:17:11;;;;;;;3.78;1.30;;;7.10;60.00;;;;;;2368044;53;20973;-64
2021/03/29 06:19:57;;;;;;;3.35;1.25;;;7.10;60.10;;;;;;2350901;53;21530;-68
2021/03/29 06:22:36;;;;;;;3.92;1.70;;;7.20;60.40;;;;;;2367508;53;20910;-64
2021/03/29 06:25:26;;;;;;;4.35;1.27;;;7.20;60.50;;;;;;2366785;53;20893;-64
2021/03/29 06:27:56;;;;;;;3.45;1.20;;;7.30;60.70;;;;;;2366855;53;20917;-63
2021/03/29 06:30:39;;;;;;;3.57;1.53;;;7.30;60.80;;;;;;2619135;52;20897;-64
2021/03/29 06:33:15;;;;;;;3.67;1.30;;;7.40;60.90;;;;;;2603380;52;20870;-64
2021/03/29 06:35:51;;;;;;;5.28;1.33;;;7.50;61.10;;;;;;2619352;52;20957;-64
2021/03/29 06:38:29;;;;;;;5.10;1.60;;;7.60;61.40;;;;;;2368603;53;20976;-64
2021/03/29 06:40:58;;;;;;;4.45;1.80;;;7.60;61.50;;;;;;2600629;52;21898;-64
2021/03/29 06:43:32;;;;;;;4.97;1.87;;;7.80;63.50;;;;;;2368807;53;20930;-64
2021/03/29 06:46:00;;;;;;;3.55;1.90;;;8.10;66.00;;;;;;2361840;53;20946;-64
2021/03/29 06:48:31;;;;;;;5.12;2.60;;;8.50;67.60;;;;;;2357116;53;20966;-64
2021/03/29 06:51:34;;;;;;;5.82;2.45;;;8.80;68.30;;;;;;2600733;52;20901;-65
2021/03/29 06:54:06;;;;;;;3.85;2.10;;;9.20;66.50;;;;;;2361254;53;20946;-64
2021/03/29 06:56:40;;;;;;;3.00;1.60;;;9.50;66.10;;;;;;2362336;53;20925;-64
2021/03/29 06:59:14;;;;;;;4.28;2.05;;;9.70;65.20;;;;;;2353771;53;21043;-64
2021/03/29 07:01:52;;;;;;;4.22;2.00;;;9.90;64.80;;;;;;2620608;52;20965;-64
2021/03/29 07:04:24;;;;;;;3.87;1.85;;;10.10;63.00;;;;;;2619217;52;20922;-64
2021/03/29 07:06:50;;;;;;;3.97;1.80;;;10.20;63.40;;;;;;2368272;53;20901;-65
2021/03/29 07:09:17;;;;;;;4.93;1.75;;;10.30;62.60;;;;;;2367284;53;21032;-65
2021/03/29 07:11:45;;;;;;;4.50;2.08;;;10.40;62.40;;;;;;2368841;53;20988;-64
2021/03/29 07:14:11;;;;;;;5.15;1.60;;;10.50;62.30;;;;;;2598303;52;21335;-64
2021/03/29 07:16:39;;;;;;;3.58;1.40;;;10.50;62.20;;;;;;2595863;52;21034;-64
2021/03/29 07:19:07;;;;;;;4.22;1.58;;;10.60;62.20;;;;;;2367412;54;21441;-65
2021/03/29 07:21:34;;;;;;;3.35;1.30;;;10.70;62.20;;;;;;2360524;53;20938;-65
2021/03/29 07:24:05;;;;;;;4.65;1.20;;;10.80;62.20;;;;;;2608347;52;20985;-65
2021/03/29 07:28:27;;;;;;;4.28;1.62;;;10.90;62.20;;;;;;2367727;53;20902;-64
2021/03/29 07:30:59;;;;;;;4.62;1.20;;;11.00;62.40;;;;;;2366835;53;21817;-65
2021/03/29 07:33:27;;;;;;;4.32;1.48;;;11.30;63.30;;;;;;2619528;52;21005;-65
2021/03/29 07:35:54;;;;;;;4.37;1.42;;;11.40;63.90;;;;;;2367661;53;20929;-64
2021/03/29 07:38:34;;;;;;;3.72;1.20;;;11.60;64.30;;;;;;2367287;53;21462;-65
2021/03/29 07:41:00;;;;;;;3.95;1.40;;;11.90;64.30;;;;;;2369677;53;20953;-66
2021/03/29 07:43:27;;;;;;;3.12;1.10;;;12.10;64.10;;;;;;2572120;53;20934;-67
2021/03/29 07:46:09;;;;;;;3.08;1.20;;;12.30;63.90;;;;;;2326391;53;21857;-65
2021/03/29 07:48:40;;;;;;;5.40;1.45;;;12.50;63.00;;;;;;2342627;53;20941;-65
2021/03/29 07:51:11;;;;;;;2.85;1.30;;;12.70;63.20;;;;;;2367671;53;20989;-65
2021/03/29 07:53:46;;;;;;;4.07;1.70;;;12.90;62.90;;;;;;2348397;53;20906;-67
2021/03/29 07:56:37;;;;;;;3.55;1.30;;;13.10;62.80;;;;;;2351753;53;20975;-67
2021/03/29 07:59:04;;;;;;;2.45;1.10;;;13.30;62.70;;;;;;2370871;53;20946;-65
2021/03/29 08:01:57;;;;;;;3.17;1.30;;;13.50;62.90;;;;;;2367701;53;21483;-64
2021/03/29 08:05:06;;;;;;;3.05;1.20;;;13.70;62.40;;;;;;2619049;52;21766;-65
2021/03/29 08:07:44;;;;;;;3.15;1.37;;;14.00;61.60;;;;;;2342863;53;21546;-66
2021/03/29 08:10:14;;;;;;;3.97;1.37;;;14.30;63.80;;;;;;2347653;53;20935;-68
2021/03/29 08:13:01;;;;;;;3.55;1.58;;;14.70;64.70;;;;;;2343433;53;21243;-66
2021/03/29 08:15:58;;;;;;;4.37;1.92;;;15.00;64.00;;;;;;2591040;53;20944;-66
2021/03/29 08:18:24;;;;;;;4.05;1.50;;;15.50;64.50;;;;;;2350022;53;20951;-66
2021/03/29 08:20:54;;;;;;;3.03;1.45;;;16.00;66.70;;;;;;2587776;52;21650;-67
2021/03/29 08:23:37;;;;;;;9.02;1.73;;;16.40;67.50;;;;;;2341138;53;21288;-68
2021/03/29 08:26:28;;;;;;;3.08;1.40;;;17.00;67.10;;;;;;2344984;53;20996;-66
2021/03/29 08:29:11;;;;;;;4.57;1.73;;;17.60;67.20;;;;;;2344224;53;20962;-67
2021/03/29 08:32:14;;;;;;;5.43;1.45;;;18.10;66.40;;;;;;2341838;53;20976;-69
2021/03/29 08:35:13;;;;;;;3.33;1.27;;;18.60;66.10;;;;;;2361295;53;20942;-70
2021/03/29 08:37:46;;;;;;;3.22;1.55;;;19.20;64.90;;;;;;2351755;54;20955;-68
2021/03/29 08:40:24;;;;;;;3.53;1.52;;;19.60;66.70;;;;;;2371573;53;20942;-71
2021/03/29 08:42:53;;;;;;;3.33;1.30;;;20.00;65.70;;;;;;2624434;52;21041;-69
2021/03/29 08:45:24;;;;;;;4.10;1.60;;;20.40;67.50;;;;;;2372388;53;20941;-65
2021/03/29 08:48:32;;;;;;;3.87;1.37;;;20.70;65.80;;;;;;2371420;53;20914;-65
2021/03/29 08:50:58;;;;;;;3.10;1.05;;;21.10;63.30;;;;;;2371508;53;20966;-67
2021/03/29 08:53:25;;;;;;;3.72;1.20;;;21.50;66.50;;;;;;2596433;52;20979;-66
2021/03/29 08:55:51;;;;;;;2.65;1.10;;;21.80;66.40;;;;;;2348617;53;20926;-68
2021/03/29 08:58:17;;;;;;;2.62;1.05;;;22.20;66.50;;;;;;2615341;52;21514;-64
2021/03/29 09:00:44;;;;;;;3.30;1.20;;;22.50;66.80;;;;;;2370856;53;20961;-66
2021/03/29 09:03:20;;;;;;;2.10;0.90;;;22.90;66.80;;;;;;2610597;52;20951;-68
2021/03/29 09:05:46;;;;;;;3.65;1.20;;;23.30;63.70;;;;;;2341198;53;21559;-64
2021/03/29 09:08:14;;;;;;;3.62;1.23;;;23.60;65.60;;;;;;2604364;52;20978;-64
2021/03/29 09:10:47;;;;;;;3.50;1.40;;;24.00;65.10;;;;;;2369505;53;20982;-63
2021/03/29 09:13:15;;;;;;;3.12;1.02;;;24.40;63.50;;;;;;2351670;53;21003;-64
2021/03/29 09:15:42;;;;;;;2.37;1.20;;;24.70;63.90;;;;;;2602803;52;21725;-64
2021/03/29 09:18:14;;;;;;;3.40;1.33;;;25.00;62.40;;;;;;2610843;52;20952;-66
2021/03/29 09:20:42;;;;;;;3.40;1.27;;;25.20;60.90;;;;;;2355236;53;20918;-63
2021/03/29 09:23:12;;;;;;;2.70;1.08;;;25.40;61.00;;;;;;2624475;52;20910;-65
2021/03/29 09:25:42;;;;;;;2.80;0.90;;;25.70;61.20;;;;;;2569419;53;20982;-64
2021/03/29 09:28:34;;;;;;;2.37;0.98;;;25.90;59.70;;;;;;2595916;52;21034;-63
2021/03/29 09:31:25;;;;;;;2.60;1.00;;;26.10;58.40;;;;;;2371724;53;20913;-64
2021/03/29 09:33:53;;;;;;;3.03;1.17;;;26.40;57.80;;;;;;2624525;52;20938;-64
2021/03/29 09:36:20;;;;;;;3.40;1.25;;;26.50;58.50;;;;;;2372333;53;20946;-64
2021/03/29 09:38:49;;;;;;;3.33;1.30;;;26.70;58.60;;;;;;2589810;52;1795050;-65
2021/03/29 09:41:20;;;;;;;3.30;1.20;;;26.80;58.30;;;;;;2336510;54;21698;-65
2021/03/29 09:43:47;;;;;;;4.03;1.48;;;27.00;56.80;;;;;;2618903;52;20906;-64
2021/03/29 09:46:14;;;;;;;3.33;0.95;;;27.00;55.90;;;;;;2602417;52;20984;-64
2021/03/29 09:48:41;;;;;;;5.53;1.30;;;27.10;55.30;;;;;;2596558;52;21716;-65
2021/03/29 09:51:23;;;;;;;3.17;1.30;;;27.10;54.80;;;;;;2617493;52;20918;-65
2021/03/29 09:53:49;;;;;;;3.25;1.23;;;27.20;51.80;;;;;;2374052;53;20934;-65
2021/03/29 09:56:35;;;;;;;3.25;1.17;;;27.20;55.00;;;;;;2350275;54;21017;-63
2021/03/29 09:59:01;;;;;;;2.47;1.08;;;27.20;51.80;;;;;;2619853;52;20985;-64
2021/03/29 10:01:28;;;;;;;3.65;1.23;;;27.30;55.20;;;;;;2601303;52;20925;-65
2021/03/29 10:03:56;;;;;;;2.55;1.00;;;27.50;54.70;;;;;;2353947;53;20928;-66
2021/03/29 10:06:23;;;;;;;2.85;1.00;;;27.60;53.90;;;;;;2597577;52;20987;-65
2021/03/29 10:09:03;;;;;;;3.00;1.17;;;27.70;53.50;;;;;;2368681;53;21403;-65
2021/03/29 10:11:46;;;;;;;4.00;0.93;;;27.80;51.10;;;;;;2624699;52;20914;-65
2021/03/29 10:14:16;;;;;;;1.98;0.90;;;27.80;50.30;;;;;;2355182;53;20987;-65
2021/03/29 10:16:46;;;;;;;2.92;0.98;;;27.80;52.20;;;;;;2351417;53;20987;-65
2021/03/29 10:19:15;;;;;;;2.92;0.90;;;27.70;50.50;;;;;;2356726;53;20951;-66
2021/03/29 10:22:04;;;;;;;3.37;1.40;;;27.60;50.10;;;;;;2597785;52;20971;-65
2021/03/29 10:24:34;;;;;;;2.92;1.10;;;27.50;46.20;;;;;;2370005;53;21588;-65
2021/03/29 10:27:04;;;;;;;2.22;0.70;;;27.40;49.20;;;;;;2624710;52;20906;-65
2021/03/29 10:29:38;;;;;;;2.30;0.88;;;27.20;48.70;;;;;;2371537;53;20989;-64
2021/03/29 10:32:15;;;;;;;3.12;0.77;;;27.10;47.90;;;;;;2624014;52;20992;-64
2021/03/29 10:34:42;;;;;;;3.95;1.00;;;27.00;47.20;;;;;;2343033;54;21310;-66
2021/03/29 10:37:24;;;;;;;2.08;0.90;;;27.00;49.00;;;;;;2359448;53;21448;-66
2021/03/29 10:39:54;;;;;;;1.95;0.75;;;26.90;46.90;;;;;;2624301;52;20942;-67
2021/03/29 10:42:24;;;;;;;2.37;1.00;;;26.80;47.80;;;;;;2617751;52;21447;-65
2021/03/29 10:44:51;;;;;;;2.97;1.00;;;26.70;48.20;;;;;;2590155;52;20943;-65
2021/03/29 10:47:18;;;;;;;3.58;1.30;;;26.70;48.20;;;;;;2577367;53;20973;-66
2021/03/29 10:49:45;;;;;;;2.90;1.05;;;26.60;48.00;;;;;;2358445;53;21399;-70
2021/03/29 10:52:12;;;;;;;2.22;0.80;;;26.50;47.90;;;;;;2594920;52;20911;-65
2021/03/29 10:54:39;;;;;;;1.98;0.73;;;26.40;47.70;;;;;;2371318;53;20954;-64
2021/03/29 10:57:07;;;;;;;3.97;1.08;;;26.30;47.80;;;;;;2372124;53;20934;-64
2021/03/29 10:59:33;;;;;;;4.03;1.00;;;26.30;47.30;;;;;;2372711;53;20966;-64
2021/03/29 11:02:01;;;;;;;2.90;0.82;;;26.20;47.50;;;;;;2598708;52;20930;-63
2021/03/29 11:04:27;;;;;;;3.17;0.88;;;26.30;47.80;;;;;;2362988;53;20996;-64
2021/03/29 11:06:54;;;;;;;2.30;0.68;;;26.30;47.60;;;;;;2342773;54;20994;-66
2021/03/29 11:09:23;;;;;;;2.67;0.80;;;26.30;48.10;;;;;;2333853;53;22419;-65
2021/03/29 11:11:50;;;;;;;3.90;0.98;;;26.30;48.30;;;;;;2564432;53;20941;-63
2021/03/29 11:14:19;;;;;;;1.55;0.70;;;26.40;47.60;;;;;;2577119;53;20944;-65
2021/03/29 11:16:50;;;;;;;2.37;0.80;;;26.50;48.00;;;;;;2595854;52;20946;-66
2021/03/29 11:19:21;;;;;;;3.15;1.37;;;26.60;47.40;;;;;;2365428;53;21045;-65
2021/03/29 11:21:47;;;;;;;3.42;1.20;;;26.60;47.20;;;;;;2335058;54;20946;-63
2021/03/29 11:24:16;;;;;;;2.67;0.90;;;26.70;47.00;;;;;;2576946;53;21415;-65
2021/03/29 11:26:42;;;;;;;2.55;0.98;;;26.70;46.70;;;;;;2348228;53;21000;-63
2021/03/29 11:29:09;;;;;;;3.33;0.98;;;26.70;46.80;;;;;;2616063;52;20985;-64
2021/03/29 11:31:40;;;;;;;1.98;0.73;;;26.80;47.10;;;;;;2367205;53;21020;-64
2021/03/29 11:34:07;;;;;;;2.17;0.70;;;26.80;47.70;;;;;;2354057;53;20958;-65
2021/03/29 11:36:33;;;;;;;1.70;0.70;;;26.90;48.30;;;;;;2607642;52;22093;-65
2021/03/29 11:39:00;;;;;;;3.12;0.80;;;27.00;48.40;;;;;;2591431;53;21067;-65
2021/03/29 11:41:29;;;;;;;3.72;0.90;;;27.10;48.30;;;;;;2361547;53;20901;-65
2021/03/29 11:43:56;;;;;;;2.47;0.80;;;27.30;48.10;;;;;;2348741;53;21220;-64
2021/03/29 11:46:22;;;;;;;2.10;0.80;;;27.40;47.90;;;;;;2367578;53;20977;-64
2021/03/29 11:48:48;;;;;;;1.90;0.68;;;27.60;47.20;;;;;;2617572;52;20985;-66
2021/03/29 11:51:18;;;;;;;2.47;0.95;;;27.80;47.20;;;;;;2367471;53;20890;-66
2021/03/29 11:53:44;;;;;;;2.80;0.82;;;27.90;46.70;;;;;;2367189;53;20948;-65
2021/03/29 11:56:13;;;;;;;3.22;0.73;;;28.10;47.40;;;;;;2359409;53;20919;-65
2021/03/29 11:58:39;;;;;;;2.33;0.90;;;28.20;46.60;;;;;;2349196;53;20961;-66
2021/03/29 12:01:26;;;;;;;2.90;0.73;;;28.30;46.50;;;;;;2601312;52;21070;-65
2021/03/29 12:03:56;;;;;;;2.53;0.80;;;28.50;46.20;;;;;;2564664;53;21050;-64
2021/03/29 12:06:31;;;;;;;3.45;0.80;;;28.60;46.50;;;;;;2621731;52;21429;-64
2021/03/29 12:09:08;;;;;;;1.62;0.60;;;28.70;45.20;;;;;;2354571;53;21726;-64
2021/03/29 12:14:19;;;;;;;2.35;0.88;;;28.80;44.90;;;;;;2619218;52;20902;-65
2021/03/29 12:16:47;;;;;;;2.08;0.75;;;28.90;45.40;;;;;;2618840;52;20965;-65
2021/03/29 12:19:14;;;;;;;1.98;0.70;;;28.90;45.60;;;;;;2618781;52;20953;-64
2021/03/29 12:21:40;;;;;;;3.55;0.90;;;29.00;45.00;;;;;;2618612;52;20929;-65
2021/03/29 12:24:13;;;;;;;4.07;0.80;;;29.10;44.90;;;;;;2595106;52;20926;-65
2021/03/29 12:26:41;;;;;;;1.92;0.75;;;29.20;43.90;;;;;;2367516;53;20965;-64
2021/03/29 12:29:09;;;;;;;2.10;0.70;;;29.30;45.00;;;;;;2618108;52;20918;-67
2021/03/29 12:31:41;;;;;;;1.90;0.60;;;29.40;44.80;;;;;;2361091;53;20915;-64
2021/03/29 12:34:09;;;;;;;1.95;0.60;;;29.40;43.10;;;;;;2367095;53;20918;-65
2021/03/29 12:36:48;;;;;;;1.90;0.60;;;29.50;44.40;;;;;;2618745;52;20948;-65
2021/03/29 12:39:49;;;;;;;1.92;0.70;;;29.60;44.20;;;;;;2617123;52;22026;-68
2021/03/29 12:42:24;;;;;;;2.45;0.75;;;29.70;44.20;;;;;;2618899;52;21323;-64
2021/03/29 12:44:50;;;;;;;2.70;0.80;;;29.70;44.10;;;;;;2595114;52;20941;-65
2021/03/29 12:47:33;;;;;;;3.60;0.80;;;29.80;43.90;;;;;;2618752;52;20996;-64
2021/03/29 12:50:12;;;;;;;1.65;0.65;;;29.80;39.20;;;;;;2315639;55;20932;-66
2021/03/29 12:52:43;;;;;;;2.45;0.70;;;29.80;40.30;;;;;;2553656;53;21941;-67
2021/03/29 12:55:14;;;;;;;2.17;0.80;;;29.80;41.80;;;;;;2329320;54;20939;-64
2021/03/29 12:57:43;;;;;;;2.03;0.83;;;29.80;42.20;;;;;;2314776;53;21033;-64
2021/03/29 13:00:18;;;;;;;1.33;0.60;;;29.70;42.60;;;;;;2314564;53;21549;-65
2021/03/29 13:02:44;;;;;;;2.10;0.70;;;29.70;41.30;;;;;;2325570;53;22015;-64
2021/03/29 13:05:24;;;;;;;1.85;0.57;;;29.70;42.00;;;;;;2311516;53;20997;-64
2021/03/29 13:08:00;;;;;;;2.08;0.73;;;29.70;41.90;;;;;;2330379;53;21056;-67
2021/03/29 13:11:16;;;;;;;3.83;0.65;;;29.70;41.90;;;;;;2311003;53;21558;-64
2021/03/29 13:15:57;;;;;;;2.25;0.60;;;29.60;41.30;;;;;;2327545;53;21022;-64
2021/03/29 13:18:25;;;;;;;2.17;0.70;;;29.60;43.10;;;;;;2324580;54;21478;-64
2021/03/29 13:20:55;;;;;;;2.17;0.82;;;29.50;42.00;;;;;;2555637;52;21438;-64